Time;durP1;ratioP1;P1;durP2;ratioP2;P2;SDS_P1;SDS_P2;PMS_P1;PMS_P2;Temp;Humidity;BMP_temperature;BMP_pressure;BME280_temperature;BME280_humidity;BME280_pressure;Samples;Min_cycle;Max_cycle;Signal;HPM_P1;HPM_P2
2023/01/09 00:00:20;;;;;;;;;;;7.20;99.90;;;;;;5033567;28;19921;-71
2023/01/09 00:02:46;;;;;;;;;;;7.10;99.90;;;;;;5032337;28;19963;-71
2023/01/09 00:05:13;;;;;;;;;;;7.10;99.90;;;;;;5032758;28;19921;-71
2023/01/09 00:07:38;;;;;;;;;;;7.10;99.90;;;;;;5016197;28;19925;-71
2023/01/09 00:10:05;;;;;;;;;;;7.10;99.90;;;;;;5034067;28;20372;-71
2023/01/09 00:12:30;;;;;;;;;;;7.20;99.90;;;;;;5032736;28;20378;-71
2023/01/09 00:14:56;;;;;;;;;;;7.40;99.90;;;;;;5015896;28;20004;-71
2023/01/09 00:17:21;;;;;;;;;;;7.10;99.90;;;;;;5015333;28;19979;-72
2023/01/09 00:19:47;;;;;;;;;;;7.20;99.90;;;;;;5015563;28;19937;-71
2023/01/09 00:22:12;;;;;;;;;;;7.20;99.90;;;;;;5015827;28;19928;-71
2023/01/09 00:24:38;;;;;;;;;;;7.10;99.90;;;;;;5032410;28;19956;-71
2023/01/09 00:27:03;;;;;;;;;;;7.10;99.90;;;;;;5016077;28;20301;-71
2023/01/09 00:29:29;;;;;;;;;;;7.60;99.90;;;;;;5032789;28;20442;-70
2023/01/09 00:31:54;;;;;;;;;;;8.50;99.90;;;;;;5015020;28;19917;-70
2023/01/09 00:34:20;;;;;;;;;;;8.20;99.90;;;;;;5033450;28;20019;-71
2023/01/09 00:36:46;;;;;;;;;;;8.70;99.90;;;;;;5032937;28;19924;-71
2023/01/09 00:39:11;;;;;;;;;;;7.20;99.90;;;;;;5032729;28;20028;-70
2023/01/09 00:41:48;;;;;;;;;;;7.30;99.90;;;;;;5014841;28;19921;-71
2023/01/09 00:44:15;;;;;;;;;;;7.20;99.90;;;;;;5033110;28;20012;-70
2023/01/09 00:46:44;;;;;;;;;;;7.90;99.90;;;;;;5032265;28;19927;-70
2023/01/09 00:49:10;;;;;;;;;;;7.40;99.90;;;;;;5015421;28;20394;-70
2023/01/09 00:51:37;;;;;;;;;;;8.40;99.90;;;;;;5014957;28;19921;-71
2023/01/09 00:54:02;;;;;;;;;;;7.30;99.90;;;;;;5014496;28;19979;-71
2023/01/09 00:56:28;;;;;;;;;;;7.30;99.90;;;;;;5014921;28;19964;-71
2023/01/09 00:58:54;;;;;;;;;;;7.20;99.90;;;;;;5015055;28;20340;-71
2023/01/09 01:01:20;;;;;;;;;;;8.20;99.90;;;;;;5031973;28;19920;-71
2023/01/09 01:03:45;;;;;;;;;;;7.10;99.90;;;;;;5032613;28;20012;-69
2023/01/09 01:08:55;;;;;;;;;;;7.10;99.90;;;;;;5030518;28;19921;-70
2023/01/09 01:11:21;;;;;;;;;;;7.10;99.90;;;;;;5014308;28;19967;-70
2023/01/09 01:13:46;;;;;;;;;;;6.90;99.90;;;;;;5014232;28;19921;-70
2023/01/09 01:16:12;;;;;;;;;;;6.90;99.90;;;;;;5014838;28;19982;-70
2023/01/09 01:18:38;;;;;;;;;;;6.90;99.90;;;;;;5014529;28;19929;-70
2023/01/09 01:21:07;;;;;;;;;;;7.60;99.90;;;;;;5031733;28;19990;-70
2023/01/09 01:23:33;;;;;;;;;;;6.80;99.90;;;;;;5031871;28;20311;-70
2023/01/09 01:26:03;;;;;;;;;;;6.70;99.90;;;;;;5014856;28;19978;-70
2023/01/09 01:28:28;;;;;;;;;;;7.40;99.90;;;;;;5013566;28;20398;-70
2023/01/09 01:30:54;;;;;;;;;;;6.80;99.90;;;;;;5032473;28;20024;-70
2023/01/09 01:33:19;;;;;;;;;;;6.70;99.90;;;;;;5032309;28;19921;-71
2023/01/09 01:35:45;;;;;;;;;;;6.70;99.90;;;;;;5031479;28;19921;-69
2023/01/09 01:38:10;;;;;;;;;;;6.60;99.90;;;;;;5014473;28;19972;-69
2023/01/09 01:40:37;;;;;;;;;;;6.60;99.90;;;;;;5014353;28;19990;-70
2023/01/09 01:43:02;;;;;;;;;;;7.30;99.90;;;;;;5031482;28;19921;-71
2023/01/09 01:45:28;;;;;;;;;;;6.30;99.90;;;;;;5013964;28;20016;-70
2023/01/09 01:47:54;;;;;;;;;;;6.30;99.90;;;;;;5032196;28;19970;-69
2023/01/09 01:50:29;;;;;;;;;;;6.60;99.90;;;;;;5013278;28;19925;-70
2023/01/09 01:53:01;;;;;;;;;;;6.10;99.90;;;;;;5013717;28;20466;-70
2023/01/09 01:55:26;;;;;;;;;;;6.70;99.90;;;;;;5014107;28;20293;-70
2023/01/09 01:57:55;;;;;;;;;;;6.00;99.90;;;;;;5030945;28;19921;-70
2023/01/09 02:00:24;;;;;;;;;;;7.20;99.90;;;;;;5009027;28;19921;-70
2023/01/09 02:02:50;;;;;;;;;;;7.40;99.90;;;;;;5029512;28;19927;-70
2023/01/09 02:05:15;;;;;;;;;;;5.70;99.90;;;;;;5030796;28;20019;-71
2023/01/09 02:07:41;;;;;;;;;;;5.70;99.90;;;;;;5013697;28;19927;-71
2023/01/09 02:10:06;;;;;;;;;;;5.60;99.90;;;;;;5030528;28;20654;-70
2023/01/09 02:12:32;;;;;;;;;;;5.50;99.90;;;;;;5032006;28;19917;-71
2023/01/09 02:15:02;;;;;;;;;;;5.50;99.90;;;;;;5031940;28;19931;-71
2023/01/09 02:17:43;;;;;;;;;;;5.90;99.90;;;;;;5013023;28;19971;-69
2023/01/09 02:20:14;;;;;;;;;;;5.30;99.90;;;;;;5028766;28;20036;-71
2023/01/09 02:22:46;;;;;;;;;;;5.30;99.90;;;;;;5031904;28;20287;-71
2023/01/09 02:25:14;;;;;;;;;;;5.20;99.90;;;;;;5013085;28;20023;-68
2023/01/09 02:27:49;;;;;;;;;;;5.10;99.90;;;;;;5013991;28;19927;-69
2023/01/09 02:30:25;;;;;;;;;;;6.50;99.90;;;;;;5031180;28;19980;-69
2023/01/09 02:33:02;;;;;;;;;;;6.30;99.90;;;;;;5030883;28;19983;-69
2023/01/09 02:35:31;;;;;;;;;;;4.90;99.90;;;;;;5027284;28;20343;-70
2023/01/09 02:37:59;;;;;;;;;;;4.90;99.90;;;;;;5027174;28;19928;-69
2023/01/09 02:40:38;;;;;;;;;;;4.90;99.90;;;;;;5013233;28;19929;-69
2023/01/09 02:43:04;;;;;;;;;;;4.90;99.90;;;;;;5011094;28;19968;-70
2023/01/09 02:45:29;;;;;;;;;;;4.90;99.90;;;;;;5030249;28;19928;-70
2023/01/09 02:47:55;;;;;;;;;;;5.70;99.90;;;;;;5013897;28;19921;-69
2023/01/09 02:50:29;;;;;;;;;;;4.90;99.90;;;;;;5031312;28;19925;-70
2023/01/09 02:53:07;;;;;;;;;;;4.90;99.90;;;;;;5026609;28;19921;-69
2023/01/09 02:55:44;;;;;;;;;;;4.90;99.90;;;;;;5028613;28;19921;-69
2023/01/09 02:58:14;;;;;;;;;;;4.80;99.90;;;;;;5013663;28;19921;-69
2023/01/09 03:00:43;;;;;;;;;;;6.40;99.90;;;;;;5013023;28;19921;-69
2023/01/09 03:03:11;;;;;;;;;;;4.80;99.90;;;;;;5031673;28;19917;-69
2023/01/09 03:05:56;;;;;;;;;;;6.30;99.90;;;;;;5034599;28;19986;-70
2023/01/09 03:08:24;;;;;;;;;;;4.80;99.90;;;;;;5012364;28;20455;-70
2023/01/09 03:10:49;;;;;;;;;;;4.80;99.90;;;;;;5034319;28;19928;-70
2023/01/09 03:13:16;;;;;;;;;;;4.80;99.90;;;;;;5034169;28;19929;-70
2023/01/09 03:15:43;;;;;;;;;;;5.10;99.90;;;;;;5034714;28;20013;-70
2023/01/09 03:18:10;;;;;;;;;;;4.90;99.90;;;;;;5035045;28;20291;-69
2023/01/09 03:20:37;;;;;;;;;;;5.70;99.90;;;;;;5033644;28;19921;-70
2023/01/09 03:23:03;;;;;;;;;;;5.00;99.90;;;;;;5034560;28;19921;-70
2023/01/09 03:25:29;;;;;;;;;;;6.30;99.90;;;;;;5016929;28;19970;-69
2023/01/09 03:27:56;;;;;;;;;;;5.30;99.90;;;;;;5016013;28;19925;-69
2023/01/09 03:30:22;;;;;;;;;;;4.90;99.90;;;;;;5034598;28;19921;-69
2023/01/09 03:32:47;;;;;;;;;;;4.90;99.90;;;;;;5016480;28;19921;-69
2023/01/09 03:35:13;;;;;;;;;;;5.40;99.90;;;;;;5033814;28;19944;-69
2023/01/09 03:37:38;;;;;;;;;;;4.90;99.90;;;;;;5034460;28;19921;-69
2023/01/09 03:40:04;;;;;;;;;;;4.90;99.90;;;;;;5034151;28;19936;-69
2023/01/09 03:42:30;;;;;;;;;;;4.90;99.90;;;;;;5033202;28;19921;-70
2023/01/09 03:44:55;;;;;;;;;;;6.60;99.90;;;;;;5034170;28;19927;-69
2023/01/09 03:47:21;;;;;;;;;;;4.90;99.90;;;;;;5033743;28;19927;-69
2023/01/09 03:49:46;;;;;;;;;;;4.90;99.90;;;;;;5033411;28;19939;-70
2023/01/09 03:52:34;;;;;;;;;;;5.00;99.90;;;;;;5016426;28;19925;-70
2023/01/09 03:55:00;;;;;;;;;;;5.00;99.90;;;;;;5014324;28;19925;-70
2023/01/09 03:57:25;;;;;;;;;;;5.00;99.90;;;;;;5015518;28;19928;-70
2023/01/09 03:59:51;;;;;;;;;;;4.90;99.90;;;;;;5033610;28;19921;-69
2023/01/09 04:02:16;;;;;;;;;;;5.90;99.90;;;;;;5033528;28;19928;-70
2023/01/09 04:04:42;;;;;;;;;;;5.10;99.90;;;;;;5020386;28;19921;-70
2023/01/09 04:07:07;;;;;;;;;;;5.20;99.90;;;;;;5033896;28;19921;-70
2023/01/09 04:09:33;;;;;;;;;;;5.20;99.90;;;;;;5032200;28;19925;-70
2023/01/09 04:11:58;;;;;;;;;;;6.90;99.90;;;;;;5032383;28;19921;-70
2023/01/09 04:14:24;;;;;;;;;;;5.40;99.90;;;;;;5033637;28;19979;-69
2023/01/09 04:16:52;;;;;;;;;;;5.10;99.90;;;;;;5030624;28;19929;-70
2023/01/09 04:19:18;;;;;;;;;;;5.10;99.90;;;;;;5033363;28;19921;-70
2023/01/09 04:21:43;;;;;;;;;;;5.30;99.90;;;;;;5033605;28;19936;-70
2023/01/09 04:24:09;;;;;;;;;;;5.40;99.90;;;;;;5031682;28;19963;-70
2023/01/09 04:26:34;;;;;;;;;;;6.00;99.90;;;;;;5033560;28;19921;-70
2023/01/09 04:29:00;;;;;;;;;;;5.70;99.90;;;;;;5032800;28;20368;-70
2023/01/09 04:31:25;;;;;;;;;;;5.30;99.90;;;;;;5033037;28;19917;-70
2023/01/09 04:33:51;;;;;;;;;;;5.30;99.90;;;;;;5032367;28;19921;-70
2023/01/09 04:36:16;;;;;;;;;;;5.40;99.90;;;;;;5033524;28;19921;-70
2023/01/09 04:38:42;;;;;;;;;;;5.50;99.90;;;;;;5032360;28;19928;-70
2023/01/09 04:41:07;;;;;;;;;;;5.40;99.90;;;;;;5033437;28;19921;-70
2023/01/09 04:43:33;;;;;;;;;;;5.40;99.90;;;;;;5033097;28;19932;-70
2023/01/09 04:45:58;;;;;;;;;;;5.40;99.90;;;;;;5030770;28;19921;-69
2023/01/09 04:48:24;;;;;;;;;;;6.70;99.90;;;;;;5032068;28;20300;-69
2023/01/09 04:50:49;;;;;;;;;;;6.10;99.90;;;;;;5032974;28;19921;-69
2023/01/09 04:53:15;;;;;;;;;;;5.20;99.90;;;;;;5030914;28;19917;-69
2023/01/09 04:55:41;;;;;;;;;;;5.30;99.90;;;;;;5032905;28;19921;-69
2023/01/09 04:58:07;;;;;;;;;;;6.40;99.90;;;;;;5032835;28;19921;-70
2023/01/09 05:00:33;;;;;;;;;;;6.70;99.90;;;;;;5026900;28;19920;-69
2023/01/09 05:02:58;;;;;;;;;;;5.40;99.90;;;;;;5032958;28;19947;-69
2023/01/09 05:05:24;;;;;;;;;;;6.70;99.90;;;;;;5032343;28;19960;-70
2023/01/09 05:07:49;;;;;;;;;;;5.50;99.90;;;;;;5031714;28;19925;-71
2023/01/09 05:10:15;;;;;;;;;;;5.00;99.90;;;;;;5031599;28;19936;-71
2023/01/09 05:12:40;;;;;;;;;;;5.50;99.90;;;;;;5031118;28;19956;-71
2023/01/09 05:15:07;;;;;;;;;;;6.00;99.90;;;;;;5015278;28;20335;-70
2023/01/09 05:17:32;;;;;;;;;;;5.70;99.90;;;;;;5014777;28;19921;-71
2023/01/09 05:19:59;;;;;;;;;;;5.70;99.90;;;;;;5031595;28;20699;-71
2023/01/09 05:22:25;;;;;;;;;;;5.70;99.90;;;;;;5032660;28;19925;-68
2023/01/09 05:24:50;;;;;;;;;;;7.20;99.90;;;;;;5014659;28;20392;-69
2023/01/09 05:27:16;;;;;;;;;;;7.40;99.90;;;;;;5031042;28;19920;-69
2023/01/09 05:29:41;;;;;;;;;;;5.80;99.90;;;;;;5014513;28;19932;-69
2023/01/09 05:32:07;;;;;;;;;;;6.80;99.90;;;;;;5032512;28;19921;-69
2023/01/09 05:34:33;;;;;;;;;;;7.20;99.90;;;;;;5013793;28;19925;-71
2023/01/09 05:36:59;;;;;;;;;;;6.10;99.90;;;;;;5014295;28;19975;-70
2023/01/09 05:39:24;;;;;;;;;;;7.20;99.90;;;;;;5014026;28;19925;-70
2023/01/09 05:41:50;;;;;;;;;;;6.00;99.90;;;;;;5031376;28;19990;-70
2023/01/09 05:44:15;;;;;;;;;;;6.40;99.90;;;;;;5014569;28;19925;-70
2023/01/09 05:46:41;;;;;;;;;;;6.00;99.90;;;;;;5031612;28;19924;-72
2023/01/09 05:49:06;;;;;;;;;;;7.10;99.90;;;;;;5013457;28;19921;-70
2023/01/09 05:51:32;;;;;;;;;;;6.10;99.90;;;;;;5013898;28;19921;-70
2023/01/09 05:53:58;;;;;;;;;;;7.70;99.90;;;;;;5014143;28;20284;-70
2023/01/09 05:56:23;;;;;;;;;;;6.40;99.90;;;;;;5009104;28;20007;-70
2023/01/09 05:58:49;;;;;;;;;;;6.70;99.90;;;;;;5013360;28;19921;-70
2023/01/09 06:01:14;;;;;;;;;;;7.90;99.90;;;;;;5031124;28;20004;-70
2023/01/09 06:03:40;;;;;;;;;;;6.80;99.90;;;;;;5013304;28;19921;-70
2023/01/09 06:06:05;;;;;;;;;;;6.40;99.90;;;;;;5030181;28;20419;-70
2023/01/09 06:08:31;;;;;;;;;;;6.20;99.90;;;;;;5031441;28;19925;-70
2023/01/09 06:10:56;;;;;;;;;;;7.70;99.90;;;;;;5031109;28;20319;-70
2023/01/09 06:13:22;;;;;;;;;;;7.20;99.90;;;;;;5030432;28;19975;-71
2023/01/09 06:15:47;;;;;;;;;;;7.40;99.90;;;;;;5030106;28;19921;-70
2023/01/09 06:18:13;;;;;;;;;;;6.70;99.90;;;;;;5030295;28;19921;-72
2023/01/09 06:20:39;;;;;;;;;;;6.20;99.90;;;;;;5030476;28;19975;-70
2023/01/09 06:23:04;;;;;;;;;;;7.60;99.90;;;;;;5031071;28;20015;-70
2023/01/09 06:25:30;;;;;;;;;;;6.20;99.90;;;;;;5029790;28;19967;-70
2023/01/09 06:27:58;;;;;;;;;;;6.20;99.90;;;;;;5030844;28;19921;-70
2023/01/09 06:30:24;;;;;;;;;;;6.20;99.90;;;;;;5030666;28;19971;-71
2023/01/09 06:32:49;;;;;;;;;;;6.90;99.90;;;;;;5031034;28;19925;-71
2023/01/09 06:35:19;;;;;;;;;;;7.10;99.90;;;;;;5030253;28;20335;-71
2023/01/09 06:37:45;;;;;;;;;;;7.10;99.90;;;;;;5030742;28;19925;-71
2023/01/09 06:40:11;;;;;;;;;;;6.60;99.90;;;;;;5033917;28;20329;-71
2023/01/09 06:42:36;;;;;;;;;;;5.70;99.90;;;;;;5034782;28;20054;-71
2023/01/09 06:45:02;;;;;;;;;;;5.60;99.90;;;;;;5033555;28;19944;-71
2023/01/09 06:47:27;;;;;;;;;;;5.70;99.90;;;;;;5033800;28;19921;-71
2023/01/09 06:49:53;;;;;;;;;;;6.00;99.90;;;;;;5035535;28;19928;-71
2023/01/09 06:52:18;;;;;;;;;;;6.20;99.90;;;;;;5032994;28;20387;-71
2023/01/09 06:54:44;;;;;;;;;;;7.90;99.90;;;;;;5033444;28;19925;-71
2023/01/09 06:57:10;;;;;;;;;;;7.60;99.90;;;;;;5034175;28;19999;-72
2023/01/09 06:59:35;;;;;;;;;;;5.40;99.90;;;;;;5032713;28;19952;-71
2023/01/09 07:02:01;;;;;;;;;;;7.10;99.90;;;;;;5034212;28;20418;-71
2023/01/09 07:04:26;;;;;;;;;;;6.10;99.90;;;;;;5034356;28;20391;-71
2023/01/09 07:06:52;;;;;;;;;;;7.20;99.90;;;;;;5016473;28;19921;-71
2023/01/09 07:09:18;;;;;;;;;;;6.10;99.90;;;;;;5035030;28;19975;-71
2023/01/09 07:11:43;;;;;;;;;;;6.40;99.90;;;;;;5034967;28;19925;-71
2023/01/09 07:14:09;;;;;;;;;;;6.10;99.90;;;;;;5016705;28;19921;-71
2023/01/09 07:16:34;;;;;;;;;;;7.50;99.90;;;;;;5034445;28;19999;-72
2023/01/09 07:19:00;;;;;;;;;;;6.10;99.90;;;;;;5034830;28;20324;-71
2023/01/09 07:21:26;;;;;;;;;;;5.90;99.90;;;;;;5033765;28;20016;-71
2023/01/09 07:23:55;;;;;;;;;;;7.30;99.90;;;;;;5017212;28;20008;-71
2023/01/09 07:26:20;;;;;;;;;;;6.60;99.90;;;;;;5033689;28;20000;-71
2023/01/09 07:28:46;;;;;;;;;;;7.30;99.90;;;;;;5016910;28;20004;-71
2023/01/09 07:31:11;;;;;;;;;;;6.30;99.90;;;;;;5035012;28;19928;-71
2023/01/09 07:33:37;;;;;;;;;;;6.20;99.90;;;;;;5033670;28;20344;-71
2023/01/09 07:36:02;;;;;;;;;;;7.30;99.90;;;;;;5034494;28;20273;-71
2023/01/09 07:38:28;;;;;;;;;;;6.10;99.90;;;;;;5016196;28;19975;-71
2023/01/09 07:40:53;;;;;;;;;;;6.90;99.90;;;;;;5033604;28;19921;-71
2023/01/09 07:43:19;;;;;;;;;;;7.30;99.90;;;;;;5016304;28;20012;-71
2023/01/09 07:45:45;;;;;;;;;;;7.00;99.90;;;;;;5034390;28;19924;-71
2023/01/09 07:48:11;;;;;;;;;;;6.00;99.90;;;;;;5015720;28;20430;-71
2023/01/09 07:50:36;;;;;;;;;;;6.90;99.90;;;;;;5031817;28;19921;-71
2023/01/09 07:53:02;;;;;;;;;;;6.30;99.90;;;;;;5034139;28;19921;-70
2023/01/09 07:55:27;;;;;;;;;;;7.20;99.90;;;;;;5033416;28;19921;-70
2023/01/09 07:57:55;;;;;;;;;;;7.70;99.90;;;;;;5011781;28;19929;-72
2023/01/09 08:00:21;;;;;;;;;;;6.30;99.90;;;;;;5014517;28;19921;-71
2023/01/09 08:02:51;;;;;;;;;;;5.90;99.90;;;;;;5032225;28;20284;-71
2023/01/09 08:05:17;;;;;;;;;;;6.00;99.90;;;;;;5032811;28;19920;-71
2023/01/09 08:07:43;;;;;;;;;;;6.90;99.90;;;;;;5015900;28;19921;-71
2023/01/09 08:10:09;;;;;;;;;;;7.20;99.90;;;;;;5032981;28;19928;-72
2023/01/09 08:12:35;;;;;;;;;;;6.00;99.90;;;;;;5033357;28;19971;-72
2023/01/09 08:15:00;;;;;;;;;;;6.40;99.90;;;;;;5015289;28;19925;-72
2023/01/09 08:17:26;;;;;;;;;;;5.90;99.90;;;;;;5032157;28;19928;-71
2023/01/09 08:19:51;;;;;;;;;;;7.00;99.90;;;;;;5033315;28;20288;-71
2023/01/09 08:22:18;;;;;;;;;;;5.90;99.90;;;;;;5033204;28;19921;-71
2023/01/09 08:24:43;;;;;;;;;;;7.40;99.90;;;;;;5033130;28;19931;-71
2023/01/09 08:27:09;;;;;;;;;;;7.30;99.90;;;;;;5033251;28;19917;-71
2023/01/09 08:29:34;;;;;;;;;;;6.50;99.90;;;;;;5032600;28;20391;-71
2023/01/09 08:32:00;;;;;;;;;;;6.00;99.90;;;;;;5015157;28;19925;-70
2023/01/09 08:34:25;;;;;;;;;;;6.00;99.90;;;;;;5014918;28;20364;-70
2023/01/09 08:36:52;;;;;;;;;;;6.00;99.90;;;;;;5014430;28;19936;-71
2023/01/09 08:39:17;;;;;;;;;;;6.40;99.90;;;;;;5015156;28;19921;-73
2023/01/09 08:47:13;;;;;;;;;;;6.10;99.90;;;;;;5031123;28;19968;-72
2023/01/09 08:49:39;;;;;;;;;;;7.40;99.90;;;;;;5015424;28;19925;-86
2023/01/09 08:52:05;;;;;;;;;;;7.90;99.90;;;;;;5014090;28;19925;-76
2023/01/09 08:54:30;;;;;;;;;;;6.60;99.90;;;;;;5015001;28;19928;-71
2023/01/09 08:56:56;;;;;;;;;;;6.10;99.90;;;;;;5032993;28;20313;-72
2023/01/09 08:59:22;;;;;;;;;;;6.60;99.90;;;;;;5013798;28;19921;-73
2023/01/09 09:01:47;;;;;;;;;;;6.20;99.90;;;;;;5032273;28;19925;-75
2023/01/09 09:04:13;;;;;;;;;;;6.90;99.90;;;;;;5032437;28;19925;-73
2023/01/09 09:06:38;;;;;;;;;;;6.10;99.90;;;;;;5031875;28;19920;-72
2023/01/09 09:09:06;;;;;;;;;;;7.20;99.90;;;;;;5015046;28;20364;-74
2023/01/09 09:11:32;;;;;;;;;;;7.60;99.90;;;;;;5032802;28;19921;-72
2023/01/09 09:13:58;;;;;;;;;;;6.50;99.90;;;;;;5013898;28;19991;-73
2023/01/09 09:16:24;;;;;;;;;;;6.10;99.90;;;;;;5032418;28;19928;-68
2023/01/09 09:18:50;;;;;;;;;;;6.10;99.90;;;;;;5014444;28;19927;-71
2023/01/09 09:21:16;;;;;;;;;;;6.10;99.90;;;;;;5014143;28;20016;-70
2023/01/09 09:23:43;;;;;;;;;;;6.00;99.90;;;;;;5032188;28;20340;-72
2023/01/09 09:26:08;;;;;;;;;;;6.10;99.90;;;;;;5013823;28;19927;-74
2023/01/09 09:28:34;;;;;;;;;;;6.80;99.90;;;;;;5032130;28;19925;-75
2023/01/09 09:31:00;;;;;;;;;;;6.10;99.90;;;;;;5032428;28;19921;-75
2023/01/09 09:33:25;;;;;;;;;;;6.10;99.90;;;;;;5031389;28;19921;-76
2023/01/09 09:35:51;;;;;;;;;;;6.70;99.90;;;;;;5032232;28;19921;-75
2023/01/09 09:38:16;;;;;;;;;;;6.00;99.90;;;;;;5027198;28;22237;-73
2023/01/09 09:41:02;;;;;;;;;;;6.60;99.90;;;;;;5031674;28;19991;-73
2023/01/09 09:46:21;;;;;;;;;;;6.10;99.90;;;;;;5027112;28;20043;-72
2023/01/09 09:48:54;;;;;;;;;;;6.20;99.90;;;;;;5009324;28;20396;-70
2023/01/09 09:51:19;;;;;;;;;;;6.30;99.90;;;;;;5028169;28;20030;-71
2023/01/09 09:54:11;;;;;;;;;;;8.10;99.90;;;;;;5013927;28;20368;-72
2023/01/09 09:56:40;;;;;;;;;;;6.30;99.90;;;;;;5021625;28;20308;-75
2023/01/09 09:59:11;;;;;;;;;;;6.40;99.90;;;;;;5014045;28;20015;-72
2023/01/09 10:01:39;;;;;;;;;;;6.40;99.90;;;;;;5013379;28;19932;-73
2023/01/09 10:04:08;;;;;;;;;;;5.90;99.90;;;;;;4997780;28;19925;-71
2023/01/09 10:06:41;;;;;;;;;;;6.50;99.90;;;;;;5031367;28;19925;-76
2023/01/09 10:09:23;;;;;;;;;;;6.50;99.90;;;;;;5030622;28;19921;-75
2023/01/09 10:12:04;;;;;;;;;;;6.40;99.90;;;;;;5028615;28;21113;-73
2023/01/09 10:14:29;;;;;;;;;;;6.50;99.90;;;;;;5013420;28;19956;-73
2023/01/09 10:17:04;;;;;;;;;;;7.70;99.90;;;;;;5008725;28;20026;-72
2023/01/09 10:19:48;;;;;;;;;;;6.70;99.90;;;;;;5009330;28;20445;-72
2023/01/09 10:22:17;;;;;;;;;;;6.70;99.90;;;;;;5011229;28;20051;-73
2023/01/09 10:25:01;;;;;;;;;;;6.50;99.90;;;;;;5011588;28;19921;-71
2023/01/09 10:27:46;;;;;;;;;;;6.70;99.90;;;;;;5029331;28;19927;-72
2023/01/09 10:30:27;;;;;;;;;;;6.70;99.90;;;;;;5011568;28;19921;-70
2023/01/09 10:33:11;;;;;;;;;;;6.70;99.90;;;;;;5012459;28;19927;-70
2023/01/09 10:35:55;;;;;;;;;;;6.70;99.90;;;;;;5012068;28;19967;-70
2023/01/09 10:38:48;;;;;;;;;;;6.90;99.90;;;;;;5011656;28;19925;-70
2023/01/09 10:41:23;;;;;;;;;;;7.10;99.90;;;;;;5011939;28;19928;-70
2023/01/09 10:43:49;;;;;;;;;;;7.80;99.90;;;;;;5011826;28;19917;-72
2023/01/09 10:46:22;;;;;;;;;;;9.90;99.90;;;;;;5030553;28;19929;-72
2023/01/09 10:48:51;;;;;;;;;;;8.70;99.90;;;;;;5013385;28;20436;-71
2023/01/09 10:51:18;;;;;;;;;;;8.60;99.90;;;;;;5029461;28;19921;-70
2023/01/09 10:53:54;;;;;;;;;;;8.50;99.90;;;;;;5013059;28;19927;-70
2023/01/09 10:56:31;;;;;;;;;;;8.50;99.90;;;;;;5014014;28;20283;-78
2023/01/09 10:58:56;;;;;;;;;;;8.60;99.90;;;;;;5019442;28;19922;-71
2023/01/09 11:01:27;;;;;;;;;;;8.70;99.90;;;;;;5027617;28;19928;-72
2023/01/09 11:03:53;;;;;;;;;;;8.60;99.90;;;;;;5012617;28;19921;-72
2023/01/09 11:06:24;;;;;;;;;;;8.30;99.90;;;;;;5026832;28;19927;-70
2023/01/09 11:08:51;;;;;;;;;;;8.10;99.90;;;;;;5028975;28;20362;-70
2023/01/09 11:11:31;;;;;;;;;;;8.10;99.90;;;;;;5028079;28;20005;-70
2023/01/09 11:14:12;;;;;;;;;;;7.90;99.90;;;;;;5028824;28;19924;-71
2023/01/09 11:16:37;;;;;;;;;;;7.90;99.90;;;;;;5027036;28;20415;-71
2023/01/09 11:19:03;;;;;;;;;;;8.00;99.90;;;;;;5028731;28;19921;-72
2023/01/09 11:21:40;;;;;;;;;;;8.00;99.90;;;;;;5029237;28;19921;-72
2023/01/09 11:24:18;;;;;;;;;;;8.60;99.90;;;;;;5028000;28;19960;-70
2023/01/09 11:26:44;;;;;;;;;;;7.80;99.90;;;;;;5032780;28;19928;-73
2023/01/09 11:29:11;;;;;;;;;;;8.00;99.90;;;;;;5033464;28;20292;-75
2023/01/09 11:31:40;;;;;;;;;;;7.80;99.90;;;;;;5033487;28;19921;-73
2023/01/09 11:34:15;;;;;;;;;;;7.80;99.90;;;;;;5031807;28;19921;-73
2023/01/09 11:36:40;;;;;;;;;;;7.80;99.90;;;;;;5034231;28;19921;-74
2023/01/09 11:39:17;;;;;;;;;;;7.80;99.90;;;;;;5032401;28;20058;-70
2023/01/09 11:41:43;;;;;;;;;;;9.30;99.90;;;;;;5031863;28;20274;-72
2023/01/09 11:44:12;;;;;;;;;;;7.80;99.90;;;;;;5034029;28;19928;-78
2023/01/09 11:46:41;;;;;;;;;;;9.10;99.90;;;;;;5031828;28;19975;-75
2023/01/09 11:49:16;;;;;;;;;;;7.90;99.90;;;;;;5032540;28;20361;-73
2023/01/09 11:51:42;;;;;;;;;;;7.90;99.90;;;;;;5033489;28;19927;-71
2023/01/09 11:54:16;;;;;;;;;;;8.10;99.90;;;;;;5033087;28;20391;-71
2023/01/09 11:56:42;;;;;;;;;;;8.20;99.90;;;;;;5027412;28;19925;-70
2023/01/09 11:59:12;;;;;;;;;;;9.90;99.90;;;;;;5032100;28;19968;-71
2023/01/09 12:01:38;;;;;;;;;;;8.30;99.90;;;;;;5031762;28;20024;-70
2023/01/09 12:04:16;;;;;;;;;;;8.20;99.90;;;;;;5025437;28;20019;-75
2023/01/09 12:06:56;;;;;;;;;;;8.10;99.90;;;;;;5024202;28;19974;-74
2023/01/09 12:09:21;;;;;;;;;;;8.10;99.90;;;;;;5010793;28;19968;-71
2023/01/09 12:11:55;;;;;;;;;;;8.20;99.90;;;;;;5032550;28;20544;-72
2023/01/09 12:14:39;;;;;;;;;;;8.40;99.90;;;;;;5011089;28;20079;-70
2023/01/09 12:17:15;;;;;;;;;;;8.50;99.90;;;;;;4996324;28;19925;-74
2023/01/09 12:19:44;;;;;;;;;;;8.60;99.90;;;;;;5015199;28;19921;-70
2023/01/09 12:22:22;;;;;;;;;;;8.60;99.90;;;;;;5014071;28;19967;-72
2023/01/09 12:24:47;;;;;;;;;;;9.00;99.90;;;;;;5014504;28;19925;-75
2023/01/09 12:27:23;;;;;;;;;;;11.10;99.90;;;;;;5009466;28;19991;-76
2023/01/09 12:30:01;;;;;;;;;;;12.00;99.90;;;;;;5023394;28;20032;-74
2023/01/09 12:32:46;;;;;;;;;;;13.50;99.90;;;;;;5011788;28;19928;-75
2023/01/09 12:35:18;;;;;;;;;;;14.50;99.90;;;;;;5014958;28;19936;-73
2023/01/09 12:37:44;;;;;;;;;;;15.00;99.90;;;;;;5030668;28;19960;-73
2023/01/09 12:40:15;;;;;;;;;;;15.30;99.90;;;;;;5032138;28;19975;-73
2023/01/09 12:43:00;;;;;;;;;;;15.60;99.90;;;;;;5031899;28;20394;-73
2023/01/09 12:45:34;;;;;;;;;;;16.00;99.90;;;;;;5011193;28;19925;-71
2023/01/09 12:48:16;;;;;;;;;;;16.20;99.90;;;;;;5014303;28;19921;-72
2023/01/09 12:51:02;;;;;;;;;;;16.80;99.90;;;;;;5013698;28;19920;-71
2023/01/09 12:53:29;;;;;;;;;;;17.20;99.90;;;;;;5028537;28;19927;-70
2023/01/09 12:56:14;;;;;;;;;;;17.20;99.90;;;;;;5031431;28;19924;-71
2023/01/09 12:58:43;;;;;;;;;;;17.10;99.90;;;;;;5012824;28;20377;-71
2023/01/09 13:01:14;;;;;;;;;;;17.10;99.90;;;;;;5031057;28;19928;-70
2023/01/09 13:03:46;;;;;;;;;;;17.20;99.90;;;;;;5029310;28;20377;-70
2023/01/09 13:06:14;;;;;;;;;;;16.70;99.90;;;;;;5027517;28;20036;-70
2023/01/09 13:08:42;;;;;;;;;;;16.20;99.90;;;;;;5031215;28;20317;-70
2023/01/09 13:11:14;;;;;;;;;;;15.10;99.90;;;;;;5029218;28;20419;-68
2023/01/09 13:13:58;;;;;;;;;;;14.40;99.90;;;;;;5027542;28;19921;-69
2023/01/09 13:16:27;;;;;;;;;;;14.00;99.90;;;;;;5029797;28;20035;-70
2023/01/09 13:18:57;;;;;;;;;;;13.40;99.90;;;;;;5028532;28;20026;-70
2023/01/09 13:21:25;;;;;;;;;;;12.90;99.90;;;;;;5029146;28;19928;-69
2023/01/09 13:24:09;;;;;;;;;;;12.40;99.90;;;;;;5029639;28;19917;-70
2023/01/09 13:26:46;;;;;;;;;;;11.90;99.90;;;;;;5029700;28;19925;-70
2023/01/09 13:29:12;;;;;;;;;;;11.50;99.90;;;;;;5029181;28;19967;-71
2023/01/09 13:31:37;;;;;;;;;;;11.20;99.90;;;;;;5030370;28;19925;-70
2023/01/09 13:34:04;;;;;;;;;;;10.90;99.90;;;;;;5028553;28;20019;-68
2023/01/09 13:36:31;;;;;;;;;;;10.50;99.90;;;;;;5030233;28;19921;-69
2023/01/09 13:38:58;;;;;;;;;;;10.80;99.90;;;;;;5029051;28;19925;-69
2023/01/09 13:44:17;;;;;;;;;;;10.20;99.90;;;;;;5027385;28;19921;-68
2023/01/09 13:46:47;;;;;;;;;;;9.90;99.90;;;;;;5027867;28;19921;-70
2023/01/09 13:49:32;;;;;;;;;;;9.90;99.90;;;;;;5030658;28;20003;-71
2023/01/09 13:52:18;;;;;;;;;;;9.90;99.90;;;;;;5028873;28;20015;-69
2023/01/09 13:54:50;;;;;;;;;;;9.70;99.90;;;;;;5021282;28;19925;-69
2023/01/09 13:57:25;;;;;;;;;;;9.50;99.90;;;;;;5028392;28;19944;-69
2023/01/09 13:59:50;;;;;;;;;;;9.30;99.90;;;;;;5028948;28;20364;-68
2023/01/09 14:02:34;;;;;;;;;;;9.10;99.90;;;;;;5029113;28;19982;-70
2023/01/09 14:05:23;;;;;;;;;;;9.00;99.90;;;;;;5029736;28;20304;-67
2023/01/09 14:08:02;;;;;;;;;;;8.80;99.90;;;;;;4990377;28;20280;-68
2023/01/09 14:10:44;;;;;;;;;;;8.70;99.90;;;;;;5029820;28;19967;-68
2023/01/09 14:13:15;;;;;;;;;;;8.70;99.90;;;;;;5028962;28;19921;-68
2023/01/09 14:15:43;;;;;;;;;;;8.70;99.90;;;;;;5011402;28;20360;-68
2023/01/09 14:18:22;;;;;;;;;;;9.80;99.90;;;;;;5012024;28;19921;-68
2023/01/09 14:20:54;;;;;;;;;;;8.70;99.90;;;;;;5014735;28;19921;-67
2023/01/09 14:23:23;;;;;;;;;;;8.70;99.90;;;;;;5029387;28;19948;-67
2023/01/09 14:25:49;;;;;;;;;;;8.10;99.90;;;;;;5012230;28;20339;-68
2023/01/09 14:28:22;;;;;;;;;;;8.80;99.90;;;;;;5012071;28;19987;-75
2023/01/09 14:30:53;;;;;;;;;;;8.50;99.90;;;;;;5011675;28;19967;-73
2023/01/09 14:33:19;;;;;;;;;;;8.50;99.90;;;;;;5011849;28;19929;-72
2023/01/09 14:36:03;;;;;;;;;;;8.40;99.90;;;;;;5028575;28;19925;-75
2023/01/09 14:38:52;;;;;;;;;;;8.40;99.90;;;;;;5028639;28;19921;-72
2023/01/09 14:41:56;;;;;;;;;;;8.40;99.90;;;;;;5018424;28;19925;-71
2023/01/09 14:44:13;;;;;;;;;;;8.30;99.90;;;;;;5026735;28;19921;-67
2023/01/09 14:46:39;;;;;;;;;;;8.20;99.90;;;;;;5029544;28;20384;-70
2023/01/09 14:49:04;;;;;;;;;;;8.10;99.90;;;;;;5008946;28;19916;-71
2023/01/09 14:51:31;;;;;;;;;;;8.70;99.90;;;;;;5010731;28;19921;-71